createdAt,value
2023-10-20T00:00:16.493Z,73.82
2023-10-20T00:00:49.142Z,78.70
2023-10-20T00:01:21.743Z,74.22
2023-10-20T00:01:56.815Z,73.97
2023-10-20T00:02:29.544Z,68.97
2023-10-20T00:03:03.524Z,74.20
2023-10-20T00:03:37.464Z,72.75
2023-10-20T00:04:10.313Z,76.25
2023-10-20T00:04:42.927Z,73.60
2023-10-20T00:05:16.466Z,75.30
2023-10-20T00:05:51.912Z,75.95
2023-10-20T00:06:24.474Z,77.03
2023-10-20T00:06:57.563Z,77.63
2023-10-20T00:07:31.155Z,70.68
2023-10-20T00:08:04.043Z,72.07
2023-10-20T00:08:36.817Z,70.85
2023-10-20T00:09:09.735Z,70.18
2023-10-20T00:09:44.333Z,73.75
2023-10-20T00:10:17.992Z,73.10
2023-10-20T00:10:50.597Z,75.63
2023-10-20T00:11:26.872Z,74.57
2023-10-20T00:12:00.090Z,70.22
2023-10-20T00:12:32.803Z,74.20
2023-10-20T00:13:07.199Z,75.90
2023-10-20T00:13:40.204Z,73.53
2023-10-20T00:14:12.984Z,73.60
2023-10-20T00:14:46.062Z,74.25
2023-10-20T00:15:21.771Z,76.90
2023-10-20T00:15:54.518Z,70.70
2023-10-20T00:16:27.248Z,69.53
2023-10-20T00:17:01.214Z,70.30
2023-10-20T00:17:34.986Z,74.35
2023-10-20T00:18:07.791Z,76.05
2023-10-20T00:18:40.375Z,77.57
2023-10-20T00:19:14.041Z,71.15
2023-10-20T00:19:46.645Z,69.17
2023-10-20T00:20:19.322Z,76.63
2023-10-20T00:20:51.919Z,74.35
2023-10-20T00:21:26.459Z,72.35
2023-10-20T00:22:01.537Z,74.00
2023-10-20T00:22:34.063Z,74.15
2023-10-20T00:23:07.690Z,71.28
2023-10-20T00:23:40.433Z,67.97
2023-10-20T00:24:13.819Z,73.70
2023-10-20T00:24:46.530Z,72.93
2023-10-20T00:25:20.197Z,75.47
2023-10-20T00:25:52.810Z,74.93
2023-10-20T00:26:25.400Z,73.50
2023-10-20T00:26:59.376Z,76.72
2023-10-20T00:27:32.036Z,76.28
2023-10-20T00:28:05.040Z,76.38
2023-10-20T00:28:38.543Z,72.90
2023-10-20T00:29:11.256Z,76.70
2023-10-20T00:29:43.885Z,76.10
2023-10-20T00:30:17.530Z,72.38
2023-10-20T00:30:50.083Z,75.32
2023-10-20T00:31:22.835Z,74.82
2023-10-20T00:31:55.656Z,73.45
2023-10-20T00:32:32.120Z,72.55
2023-10-20T00:33:06.736Z,75.72
2023-10-20T00:33:40.740Z,74.00
2023-10-20T00:34:13.587Z,75.35
2023-10-20T00:34:47.166Z,72.65
2023-10-20T00:35:19.840Z,70.00
2023-10-20T00:35:52.509Z,76.45
2023-10-20T00:36:25.065Z,72.30
2023-10-20T00:36:58.657Z,72.28
2023-10-20T00:37:32.204Z,69.10
2023-10-20T00:38:05.089Z,72.85
2023-10-20T00:38:37.689Z,74.55
2023-10-20T00:39:11.339Z,71.97
2023-10-20T00:39:44.643Z,70.43
2023-10-20T00:40:17.357Z,75.82
2023-10-20T00:40:50.390Z,73.15
2023-10-20T00:41:24.686Z,74.78
2023-10-20T00:41:57.587Z,72.68
2023-10-20T00:42:32.109Z,74.38
2023-10-20T00:43:05.022Z,70.65
2023-10-20T00:43:39.230Z,74.05
2023-10-20T00:44:11.928Z,76.75
2023-10-20T00:44:44.678Z,72.20
2023-10-20T00:45:17.909Z,67.93
2023-10-20T00:45:51.575Z,70.57
2023-10-20T00:46:24.476Z,70.97
2023-10-20T00:46:57.820Z,75.20
2023-10-20T00:47:32.273Z,72.25
2023-10-20T00:48:07.839Z,71.17
2023-10-20T00:48:42.525Z,75.18
2023-10-20T00:49:15.674Z,74.93
2023-10-20T00:49:51.490Z,75.72
2023-10-20T00:50:24.561Z,71.80
2023-10-20T00:50:57.211Z,78.07
2023-10-20T00:51:30.144Z,77.05
2023-10-20T00:52:03.756Z,76.40
2023-10-20T00:52:37.155Z,75.38
2023-10-20T00:53:11.118Z,75.47
2023-10-20T00:53:43.696Z,75.47
2023-10-20T00:54:18.182Z,74.88
2023-10-20T00:54:52.157Z,74.63
2023-10-20T00:55:26.604Z,70.95
2023-10-20T00:55:59.843Z,76.40
2023-10-20T00:56:34.510Z,75.35
2023-10-20T00:57:07.198Z,74.38
2023-10-20T00:57:40.413Z,70.83
2023-10-20T00:58:13.039Z,76.53
2023-10-20T00:58:49.241Z,74.30
2023-10-20T00:59:23.987Z,76.10
2023-10-20T00:59:56.653Z,77.57
2023-10-20T01:00:30.198Z,76.22
2023-10-20T01:01:05.251Z,75.15
2023-10-20T01:01:38.604Z,75.35
2023-10-20T01:02:11.445Z,77.85
2023-10-20T01:02:46.878Z,74.82
2023-10-20T01:03:20.076Z,75.63
2023-10-20T01:03:52.901Z,75.00
2023-10-20T01:04:26.547Z,76.53
2023-10-20T01:04:59.304Z,73.65
2023-10-20T01:05:31.915Z,72.72
2023-10-20T01:06:06.001Z,71.18
2023-10-20T01:06:39.893Z,74.70
2023-10-20T01:07:12.938Z,76.07
2023-10-20T01:07:45.448Z,72.03
2023-10-20T01:08:18.012Z,74.10
2023-10-20T01:08:57.779Z,73.50
2023-10-20T01:09:31.456Z,77.32
2023-10-20T01:10:06.161Z,74.57
2023-10-20T01:10:39.974Z,78.32
2023-10-20T01:11:12.557Z,73.38
2023-10-20T01:11:46.323Z,77.45
2023-10-20T01:12:19.093Z,78.93
2023-10-20T01:12:52.650Z,70.75
2023-10-20T01:13:25.372Z,76.13
2023-10-20T01:13:57.986Z,76.47
2023-10-20T01:14:30.733Z,75.45
2023-10-20T01:15:07.643Z,74.80
2023-10-20T01:15:40.286Z,75.50
2023-10-20T01:16:14.729Z,72.35
2023-10-20T01:16:48.023Z,76.47
2023-10-20T01:17:21.817Z,73.53
2023-10-20T01:17:55.932Z,73.38
2023-10-20T01:18:28.590Z,75.80
2023-10-20T01:19:02.351Z,77.85
2023-10-20T01:19:38.020Z,79.03
2023-10-20T01:20:12.570Z,75.45
2023-10-20T01:20:48.313Z,75.68
2023-10-20T01:21:21.858Z,76.45
2023-10-20T01:22:00.034Z,75.07
2023-10-20T01:22:32.746Z,76.03
2023-10-20T01:23:06.567Z,73.93
2023-10-20T01:23:39.870Z,72.88
2023-10-20T01:24:14.693Z,76.43
2023-10-20T01:24:47.185Z,76.18
2023-10-20T01:25:23.969Z,73.10
2023-10-20T01:25:57.740Z,75.82
2023-10-20T01:26:30.583Z,75.75
2023-10-20T01:27:03.401Z,75.72
2023-10-20T01:27:36.946Z,88.80
2023-10-20T01:28:11.238Z,73.78
2023-10-20T01:28:44.432Z,76.93
2023-10-20T01:29:17.108Z,73.68
2023-10-20T01:29:50.790Z,72.93
2023-10-20T01:30:23.363Z,76.55
2023-10-20T01:30:58.325Z,73.53
2023-10-20T01:31:30.872Z,75.33
2023-10-20T01:32:04.918Z,77.35
2023-10-20T01:32:37.779Z,75.45
2023-10-20T01:33:14.039Z,75.80
2023-10-20T01:33:46.626Z,73.53
2023-10-20T01:34:19.299Z,71.10
2023-10-20T01:34:52.893Z,77.00
2023-10-20T01:35:25.475Z,75.07
2023-10-20T01:35:58.033Z,69.47
2023-10-20T01:36:32.102Z,74.95
2023-10-20T01:37:05.337Z,76.68
2023-10-20T01:37:38.043Z,74.88
2023-10-20T01:38:11.757Z,74.88
2023-10-20T01:38:44.527Z,76.70
2023-10-20T01:39:18.561Z,74.38
2023-10-20T01:39:52.380Z,74.78
2023-10-20T01:40:24.961Z,75.75
2023-10-20T01:40:57.595Z,72.07
2023-10-20T01:41:30.182Z,71.65
2023-10-20T01:42:03.740Z,71.38
2023-10-20T01:42:36.389Z,72.15
2023-10-20T01:43:08.920Z,75.15
2023-10-20T01:43:43.307Z,77.07
2023-10-20T01:44:15.888Z,73.53
2023-10-20T01:44:48.689Z,74.68
2023-10-20T01:45:22.291Z,75.47
2023-10-20T01:45:54.883Z,73.93
2023-10-20T01:46:28.415Z,75.70
2023-10-20T01:47:01.213Z,76.55
2023-10-20T01:47:36.063Z,78.15
2023-10-20T01:48:09.395Z,77.07
2023-10-20T01:48:41.980Z,81.43
2023-10-20T01:49:15.512Z,82.25
2023-10-20T01:49:48.093Z,76.25
2023-10-20T01:50:21.833Z,78.20
2023-10-20T01:50:54.443Z,84.13
2023-10-20T01:51:27.996Z,75.63
2023-10-20T01:52:00.853Z,74.05
2023-10-20T01:52:33.397Z,76.68
2023-10-20T01:53:06.048Z,77.20
2023-10-20T01:53:38.951Z,75.63
2023-10-20T01:54:12.641Z,72.10
2023-10-20T01:54:47.530Z,76.63
2023-10-20T01:55:20.201Z,76.03
2023-10-20T01:55:54.871Z,75.47
2023-10-20T01:56:27.508Z,73.38
2023-10-20T01:57:00.269Z,75.95
2023-10-20T01:57:32.862Z,81.55
2023-10-20T01:58:06.688Z,80.78
2023-10-20T01:58:39.783Z,76.10
2023-10-20T01:59:12.671Z,73.53
2023-10-20T01:59:45.238Z,79.03
2023-10-20T02:00:18.977Z,73.80
2023-10-20T02:00:51.988Z,72.53
2023-10-20T02:01:24.885Z,74.22
2023-10-20T02:01:57.559Z,75.60
2023-10-20T02:02:30.311Z,72.32
2023-10-20T02:03:04.205Z,74.50
2023-10-20T02:03:38.165Z,77.10
2023-10-20T02:04:11.171Z,72.80
2023-10-20T02:04:44.329Z,77.47
2023-10-20T02:05:17.939Z,76.63
2023-10-20T02:05:50.565Z,79.05
2023-10-20T02:06:23.193Z,81.15
2023-10-20T02:06:55.779Z,76.20
2023-10-20T02:07:29.490Z,73.18
2023-10-20T02:08:03.596Z,76.03
2023-10-20T02:08:36.314Z,77.50
2023-10-20T02:09:11.017Z,74.18
2023-10-20T02:09:45.201Z,81.57
2023-10-20T02:10:17.867Z,72.15
2023-10-20T02:10:51.278Z,76.45
2023-10-20T02:11:24.928Z,76.57
2023-10-20T02:11:59.454Z,75.65
2023-10-20T02:12:32.798Z,79.75
2023-10-20T02:13:06.688Z,75.55
2023-10-20T02:13:39.833Z,70.05
2023-10-20T02:14:12.373Z,75.43
2023-10-20T02:14:44.954Z,77.20
2023-10-20T02:15:19.093Z,69.20
2023-10-20T02:15:52.043Z,76.82
2023-10-20T02:16:25.485Z,73.15
2023-10-20T02:16:58.306Z,74.15
2023-10-20T02:17:32.018Z,76.80
2023-10-20T02:18:05.176Z,74.47
2023-10-20T02:18:37.824Z,76.65
2023-10-20T02:19:12.382Z,74.88
2023-10-20T02:19:45.985Z,76.18
2023-10-20T02:20:24.237Z,72.85
2023-10-20T02:21:00.371Z,75.78
2023-10-20T02:21:33.924Z,83.57
2023-10-20T02:22:07.301Z,76.00
2023-10-20T02:22:40.194Z,76.75
2023-10-20T02:23:13.032Z,77.03
2023-10-20T02:23:46.607Z,81.30
2023-10-20T02:24:19.361Z,79.95
2023-10-20T02:24:54.252Z,85.15
2023-10-20T02:25:27.825Z,80.40
2023-10-20T02:26:01.512Z,68.25
2023-10-20T02:26:34.131Z,72.57
2023-10-20T02:27:06.731Z,70.88
2023-10-20T02:27:43.527Z,72.57
2023-10-20T02:28:16.089Z,75.47
2023-10-20T02:28:48.721Z,73.45
2023-10-20T02:29:21.346Z,80.53
2023-10-20T02:29:56.341Z,74.28
2023-10-20T02:30:31.072Z,74.28
2023-10-20T02:31:11.798Z,73.32
2023-10-20T02:31:46.091Z,73.72
2023-10-20T02:32:18.639Z,75.03
2023-10-20T02:32:51.404Z,77.00
2023-10-20T02:33:24.167Z,73.95
2023-10-20T02:33:58.097Z,72.07
2023-10-20T02:34:32.717Z,74.55
2023-10-20T02:35:07.726Z,76.05
2023-10-20T02:35:41.839Z,73.50
2023-10-20T02:36:18.898Z,72.47
2023-10-20T02:36:51.592Z,78.28
2023-10-20T02:37:24.181Z,75.90
2023-10-20T02:37:56.732Z,77.10
2023-10-20T02:38:31.718Z,75.60
2023-10-20T02:39:04.547Z,75.47
2023-10-20T02:39:37.184Z,75.80
2023-10-20T02:40:12.134Z,73.90
2023-10-20T02:40:52.158Z,72.80
2023-10-20T02:41:25.449Z,76.18
2023-10-20T02:41:58.047Z,71.85
2023-10-20T02:42:32.216Z,74.88
2023-10-20T02:43:08.139Z,71.82
2023-10-20T02:43:40.847Z,77.05
2023-10-20T02:44:14.912Z,75.88
2023-10-20T02:44:48.556Z,75.85
2023-10-20T02:45:21.347Z,78.63
2023-10-20T02:45:55.748Z,75.90
2023-10-20T02:46:29.346Z,76.20
2023-10-20T02:47:01.945Z,72.32
2023-10-20T02:47:34.792Z,72.47
2023-10-20T02:48:08.234Z,74.10
2023-10-20T02:48:42.100Z,77.65
2023-10-20T02:49:14.812Z,74.45
2023-10-20T02:49:47.323Z,77.65
2023-10-20T02:50:19.888Z,76.03
2023-10-20T02:50:54.542Z,81.40
2023-10-20T02:51:27.150Z,75.18
2023-10-20T02:51:59.772Z,72.47
2023-10-20T02:52:32.365Z,77.80
2023-10-20T02:53:06.137Z,73.47
2023-10-20T02:53:40.624Z,76.70
2023-10-20T02:54:13.383Z,71.47
2023-10-20T02:54:47.491Z,71.13
2023-10-20T02:55:21.396Z,71.93
2023-10-20T02:55:54.014Z,75.35
2023-10-20T02:56:26.636Z,81.30
2023-10-20T02:57:00.219Z,79.90
2023-10-20T02:57:33.435Z,74.57
2023-10-20T02:58:06.122Z,71.18
2023-10-20T02:58:39.111Z,74.28
2023-10-20T02:59:13.984Z,71.95
2023-10-20T02:59:47.146Z,78.13
2023-10-20T03:00:22.523Z,78.25
2023-10-20T03:00:56.078Z,78.78
2023-10-20T03:01:28.673Z,78.53
2023-10-20T03:02:01.656Z,78.47
2023-10-20T03:02:36.096Z,77.28
2023-10-20T03:03:10.511Z,81.95
2023-10-20T03:03:44.046Z,78.75
2023-10-20T03:04:17.530Z,79.78
2023-10-20T03:04:55.483Z,80.88
2023-10-20T03:05:30.807Z,71.72
2023-10-20T03:06:05.343Z,76.30
2023-10-20T03:06:38.882Z,78.68
2023-10-20T03:07:11.532Z,75.65
2023-10-20T03:07:44.212Z,70.65
2023-10-20T03:08:18.711Z,70.47
2023-10-20T03:08:52.696Z,77.47
2023-10-20T03:09:25.383Z,76.22
2023-10-20T03:09:58.311Z,77.28
2023-10-20T03:10:32.385Z,73.68
2023-10-20T03:11:06.445Z,77.50
2023-10-20T03:11:39.120Z,73.95
2023-10-20T03:12:11.645Z,74.10
2023-10-20T03:12:45.138Z,77.50
2023-10-20T03:13:20.870Z,74.13
2023-10-20T03:13:53.398Z,74.68
2023-10-20T03:14:27.441Z,78.00
2023-10-20T03:15:00.305Z,77.18
2023-10-20T03:15:33.067Z,74.15
2023-10-20T03:16:06.758Z,73.97
2023-10-20T03:16:44.393Z,75.03
2023-10-20T03:17:17.458Z,76.38
2023-10-20T03:17:50.189Z,75.33
2023-10-20T03:18:24.714Z,76.20
2023-10-20T03:18:58.067Z,70.20
2023-10-20T03:19:31.015Z,70.72
2023-10-20T03:20:09.449Z,75.95
2023-10-20T03:20:43.063Z,80.25
2023-10-20T03:21:15.659Z,75.82
2023-10-20T03:21:48.944Z,71.88
2023-10-20T03:22:22.341Z,73.07
2023-10-20T03:22:56.148Z,71.72
2023-10-20T03:23:28.831Z,72.50
2023-10-20T03:24:02.304Z,76.72
2023-10-20T03:24:35.228Z,73.43
2023-10-20T03:25:11.219Z,70.75
2023-10-20T03:25:45.222Z,73.90
2023-10-20T03:26:18.009Z,74.43
2023-10-20T03:27:16.652Z,69.45
2023-10-20T03:30:16.306Z,76.22
2023-10-20T03:31:08.279Z,70.60
2023-10-20T03:31:45.461Z,71.97
2023-10-20T03:32:18.803Z,76.85
2023-10-20T03:32:52.510Z,72.55
2023-10-20T03:33:32.394Z,73.82
2023-10-20T03:34:11.436Z,75.07
2023-10-20T03:34:52.525Z,74.07
2023-10-20T03:35:26.861Z,74.28
2023-10-20T03:36:03.571Z,76.35
2023-10-20T03:36:36.502Z,76.82
2023-10-20T03:37:10.055Z,75.38
2023-10-20T03:37:42.746Z,72.78
2023-10-20T03:38:15.999Z,71.97
2023-10-20T03:38:51.196Z,77.05
2023-10-20T03:39:25.322Z,80.78
2023-10-20T03:39:57.960Z,77.97
2023-10-20T03:40:32.431Z,74.25
2023-10-20T03:41:12.322Z,71.75
2023-10-20T03:41:46.251Z,75.32
2023-10-20T03:42:18.869Z,70.50
2023-10-20T03:42:51.669Z,70.78
2023-10-20T03:43:25.932Z,75.22
2023-10-20T03:43:58.807Z,74.68
2023-10-20T03:44:32.206Z,72.30
2023-10-20T03:45:09.791Z,70.78
2023-10-20T03:45:50.002Z,74.75
2023-10-20T03:46:23.102Z,75.70
2023-10-20T03:46:58.068Z,72.30
2023-10-20T03:47:35.826Z,71.90
2023-10-20T03:48:10.005Z,73.32
2023-10-20T03:48:42.724Z,71.95
2023-10-20T03:49:16.744Z,71.93
2023-10-20T03:49:51.927Z,73.10
2023-10-20T03:50:24.457Z,72.05
2023-10-20T03:50:57.066Z,73.28
2023-10-20T03:51:30.552Z,72.05
2023-10-20T03:52:03.195Z,73.05
2023-10-20T03:52:37.226Z,70.55
2023-10-20T03:53:13.245Z,71.53
2023-10-20T03:53:51.707Z,70.43
2023-10-20T03:54:25.899Z,74.85
2023-10-20T03:54:58.662Z,69.95
2023-10-20T03:55:32.278Z,69.65
2023-10-20T03:56:06.307Z,69.72
2023-10-20T03:56:40.713Z,72.75
2023-10-20T03:57:16.899Z,74.07
2023-10-20T03:57:51.129Z,72.57
2023-10-20T03:58:25.743Z,74.35
2023-10-20T03:58:58.269Z,73.53
2023-10-20T03:59:31.836Z,68.97
2023-10-20T04:00:16.657Z,69.10
2023-10-20T04:00:54.161Z,70.60
2023-10-20T04:01:27.305Z,70.45
2023-10-20T04:02:01.161Z,72.95
2023-10-20T04:02:33.816Z,71.85
2023-10-20T04:03:06.611Z,70.20
2023-10-20T04:03:41.543Z,71.38
2023-10-20T04:04:14.284Z,75.43
2023-10-20T04:04:47.962Z,74.80
2023-10-20T04:05:21.879Z,71.05
2023-10-20T04:05:54.684Z,69.53
2023-10-20T04:06:27.262Z,73.45
2023-10-20T04:07:00.761Z,73.70
2023-10-20T04:07:33.336Z,71.50
2023-10-20T04:08:07.288Z,67.65
2023-10-20T04:08:41.091Z,73.05
2023-10-20T04:09:14.021Z,71.93
2023-10-20T04:09:46.593Z,69.55
2023-10-20T04:10:20.160Z,69.38
2023-10-20T04:10:59.056Z,73.75
2023-10-20T04:11:35.695Z,70.22
2023-10-20T04:12:09.854Z,73.68
2023-10-20T04:12:43.068Z,75.13
2023-10-20T04:13:16.818Z,70.05
2023-10-20T04:13:49.402Z,73.57
2023-10-20T04:14:22.105Z,71.82
2023-10-20T04:14:55.146Z,73.75
2023-10-20T04:15:28.707Z,71.70
2023-10-20T04:16:13.347Z,70.85
2023-10-20T04:16:47.220Z,69.57
2023-10-20T04:17:20.883Z,76.57
2023-10-20T04:17:53.824Z,73.60
2023-10-20T04:18:27.888Z,73.72
2023-10-20T04:19:00.514Z,73.70
2023-10-20T04:19:36.191Z,69.75
2023-10-20T04:20:16.778Z,69.57
2023-10-20T04:20:49.785Z,73.40
2023-10-20T04:21:23.465Z,68.90
2023-10-20T04:21:56.176Z,68.50
2023-10-20T04:22:28.836Z,71.97
2023-10-20T04:23:01.451Z,71.90
2023-10-20T04:23:35.134Z,71.03
2023-10-20T04:24:08.714Z,72.25
2023-10-20T04:24:42.436Z,69.82
2023-10-20T04:25:16.963Z,71.22
2023-10-20T04:25:54.632Z,72.43
2023-10-20T04:26:28.057Z,73.47
2023-10-20T04:27:00.816Z,74.50
2023-10-20T04:27:46.864Z,69.43
2023-10-20T04:28:21.644Z,72.57
2023-10-20T04:29:09.284Z,74.95
2023-10-20T04:30:01.986Z,72.88
2023-10-20T04:30:55.379Z,72.60
2023-10-20T04:31:46.458Z,67.78
2023-10-20T04:32:37.379Z,71.35
2023-10-20T04:33:28.685Z,71.85
2023-10-20T04:34:19.971Z,71.90
2023-10-20T04:35:12.215Z,69.82
2023-10-20T04:36:03.150Z,73.95
2023-10-20T04:36:53.971Z,70.78
2023-10-20T04:37:41.391Z,69.47
2023-10-20T04:38:32.464Z,74.35
2023-10-20T04:39:23.860Z,69.80
2023-10-20T04:40:14.869Z,71.57
2023-10-20T04:41:05.875Z,68.93
2023-10-20T04:42:02.366Z,66.82
2023-10-20T04:43:05.817Z,72.63
2023-10-20T04:43:43.203Z,68.47
2023-10-20T04:44:34.537Z,72.53
2023-10-20T04:45:41.239Z,69.93
2023-10-20T04:46:32.092Z,71.75
2023-10-20T04:47:25.610Z,71.78
2023-10-20T04:48:32.461Z,68.20
2023-10-20T04:49:40.077Z,70.18
2023-10-20T04:50:31.292Z,70.63
2023-10-20T04:51:10.734Z,69.53
2023-10-20T04:52:06.971Z,70.35
2023-10-20T04:52:56.959Z,68.05
2023-10-20T04:53:46.738Z,71.32
2023-10-20T04:54:23.560Z,69.97
2023-10-20T04:55:13.587Z,69.78
2023-10-20T04:56:06.817Z,70.28
2023-10-20T04:56:42.329Z,68.93
2023-10-20T04:57:40.336Z,78.90
2023-10-20T04:58:23.015Z,70.32
2023-10-20T04:58:59.487Z,71.45
2023-10-20T04:59:32.960Z,73.20
2023-10-20T05:00:21.602Z,71.28
2023-10-20T05:01:04.942Z,70.97
2023-10-20T05:01:42.609Z,68.10
2023-10-20T05:02:26.790Z,69.93
2023-10-20T05:03:13.976Z,68.82
2023-10-20T05:03:47.774Z,73.85
2023-10-20T05:04:25.776Z,70.07
2023-10-20T05:04:59.080Z,73.07
2023-10-20T05:05:36.115Z,71.45
2023-10-20T05:06:21.612Z,73.05
2023-10-20T05:06:59.611Z,72.72
2023-10-20T05:07:33.507Z,68.97
2023-10-20T05:08:18.014Z,73.00
2023-10-20T05:08:52.804Z,70.47
2023-10-20T05:09:33.728Z,70.85
2023-10-20T05:10:07.517Z,73.03
2023-10-20T05:10:42.995Z,70.80
2023-10-20T05:11:16.975Z,73.18
2023-10-20T05:11:50.651Z,71.03
2023-10-20T05:12:23.414Z,72.00
2023-10-20T05:12:56.033Z,69.47
2023-10-20T05:13:29.598Z,69.97
2023-10-20T05:14:03.488Z,70.25
2023-10-20T05:14:36.339Z,70.68
2023-10-20T05:15:11.555Z,70.22
2023-10-20T05:15:45.604Z,67.93
2023-10-20T05:16:18.184Z,70.80
2023-10-20T05:16:50.851Z,70.57
2023-10-20T05:17:26.092Z,68.35
2023-10-20T05:17:59.301Z,70.93
2023-10-20T05:18:32.270Z,71.95
2023-10-20T05:19:05.606Z,69.38
2023-10-20T05:19:39.097Z,69.60
2023-10-20T05:20:14.227Z,68.80
2023-10-20T05:20:47.457Z,72.07
2023-10-20T05:21:20.085Z,70.67
2023-10-20T05:21:54.425Z,71.40
2023-10-20T05:22:28.321Z,72.87
2023-10-20T05:23:01.737Z,71.68
2023-10-20T05:23:35.017Z,71.55
2023-10-20T05:24:09.629Z,72.60
2023-10-20T05:24:42.381Z,71.80
2023-10-20T05:25:15.399Z,69.93
2023-10-20T05:25:48.464Z,69.75
2023-10-20T05:26:22.090Z,69.25
2023-10-20T05:26:55.125Z,69.75
2023-10-20T05:27:27.623Z,69.47
2023-10-20T05:28:01.141Z,70.00
2023-10-20T05:28:33.714Z,67.10
2023-10-20T05:29:09.108Z,72.57
2023-10-20T05:29:41.746Z,70.88
2023-10-20T05:30:14.711Z,73.70
2023-10-20T05:30:47.370Z,68.68
2023-10-20T05:31:26.123Z,70.63
2023-10-20T05:31:59.610Z,68.45
2023-10-20T05:32:33.003Z,68.95
2023-10-20T05:33:06.141Z,69.10
2023-10-20T05:33:39.713Z,72.22
2023-10-20T05:34:13.207Z,69.43
2023-10-20T05:34:45.946Z,70.35
2023-10-20T05:35:18.606Z,73.95
2023-10-20T05:35:52.208Z,70.25
2023-10-20T05:36:24.790Z,69.82
2023-10-20T05:36:57.361Z,69.85
2023-10-20T05:37:30.055Z,73.85
2023-10-20T05:38:03.616Z,70.00
2023-10-20T05:38:36.449Z,65.35
2023-10-20T05:39:10.522Z,69.63
2023-10-20T05:39:44.081Z,70.18
2023-10-20T05:40:17.126Z,70.65
2023-10-20T05:40:59.147Z,67.70
2023-10-20T05:41:32.712Z,69.32
2023-10-20T05:42:05.818Z,70.93
2023-10-20T05:42:39.030Z,68.35
2023-10-20T05:43:12.034Z,70.60
2023-10-20T05:43:45.933Z,70.15
2023-10-20T05:44:23.617Z,71.70
2023-10-20T05:45:02.651Z,67.60
2023-10-20T05:45:39.022Z,68.55
2023-10-20T05:46:18.792Z,69.45
2023-10-20T05:46:53.357Z,69.93
2023-10-20T05:47:27.323Z,66.20
2023-10-20T05:48:02.127Z,71.57
2023-10-20T05:48:34.878Z,68.07
2023-10-20T05:49:09.684Z,71.18
2023-10-20T05:49:43.383Z,69.20
2023-10-20T05:50:17.586Z,70.05
2023-10-20T05:50:58.674Z,68.55
2023-10-20T05:51:32.169Z,70.75
2023-10-20T05:52:04.876Z,69.13
2023-10-20T05:52:37.726Z,69.95
2023-10-20T05:53:11.480Z,68.95
2023-10-20T05:53:45.153Z,69.70
2023-10-20T05:54:17.779Z,69.75
2023-10-20T05:54:50.754Z,67.22
2023-10-20T05:55:24.130Z,65.57
2023-10-20T05:55:57.738Z,65.95
2023-10-20T05:56:30.451Z,66.95
2023-10-20T05:57:04.712Z,68.93
2023-10-20T05:57:37.337Z,68.20
2023-10-20T05:58:10.926Z,66.30
2023-10-20T05:58:43.850Z,68.60
2023-10-20T05:59:16.413Z,68.22
2023-10-20T05:59:51.126Z,70.38
2023-10-20T06:00:24.736Z,68.40
2023-10-20T06:01:04.355Z,69.47
2023-10-20T06:01:37.989Z,70.63
2023-10-20T06:02:10.566Z,68.47
2023-10-20T06:02:44.833Z,67.38
2023-10-20T06:03:18.181Z,65.55
2023-10-20T06:03:53.034Z,69.22
2023-10-20T06:04:25.693Z,66.95
2023-10-20T06:05:00.717Z,66.15
2023-10-20T06:05:35.267Z,70.25
2023-10-20T06:06:07.984Z,71.72
2023-10-20T06:06:40.735Z,66.22
2023-10-20T06:07:13.375Z,68.35
2023-10-20T06:07:49.130Z,68.38
2023-10-20T06:08:22.366Z,70.65
2023-10-20T06:08:55.942Z,68.57
2023-10-20T06:09:29.022Z,72.32
2023-10-20T06:10:01.605Z,68.85
2023-10-20T06:10:34.214Z,66.38
2023-10-20T06:11:08.288Z,69.93
2023-10-20T06:11:40.833Z,68.38
2023-10-20T06:12:13.469Z,69.13
2023-10-20T06:12:45.945Z,66.80
2023-10-20T06:13:19.433Z,68.43
2023-10-20T06:13:52.149Z,68.85
2023-10-20T06:14:25.165Z,70.22
2023-10-20T06:14:59.203Z,70.93
2023-10-20T06:15:33.609Z,66.57
2023-10-20T06:16:10.691Z,71.03
2023-10-20T06:16:43.614Z,67.82
2023-10-20T06:17:19.337Z,66.63
2023-10-20T06:17:52.681Z,67.18
2023-10-20T06:18:34.841Z,68.18
2023-10-20T06:19:11.297Z,68.00
2023-10-20T06:19:43.893Z,68.40
2023-10-20T06:20:16.900Z,68.13
2023-10-20T06:20:50.492Z,69.85
2023-10-20T06:21:23.796Z,70.57
2023-10-20T06:21:57.128Z,69.60
2023-10-20T06:22:29.695Z,69.40
2023-10-20T06:23:03.255Z,71.72
2023-10-20T06:23:35.819Z,69.07
2023-10-20T06:24:08.942Z,68.10
2023-10-20T06:24:41.487Z,69.68
2023-10-20T06:25:15.142Z,67.32
2023-10-20T06:25:47.811Z,67.30
2023-10-20T06:26:21.426Z,70.45
2023-10-20T06:26:54.078Z,68.63
2023-10-20T06:27:26.799Z,67.07
2023-10-20T06:27:59.608Z,67.57
2023-10-20T06:28:32.294Z,68.80
2023-10-20T06:29:22.178Z,68.57
2023-10-20T06:29:58.080Z,67.32
2023-10-20T06:30:32.123Z,68.95
2023-10-20T06:31:28.291Z,66.40
2023-10-20T06:32:11.091Z,65.43
2023-10-20T06:32:44.830Z,66.97
2023-10-20T06:33:21.793Z,69.70
2023-10-20T06:34:01.265Z,67.95
2023-10-20T06:34:35.618Z,69.88
2023-10-20T06:35:10.761Z,66.63
2023-10-20T06:35:54.692Z,70.18
2023-10-20T06:36:28.378Z,69.85
2023-10-20T06:37:08.286Z,65.28
2023-10-20T06:37:47.736Z,70.05
2023-10-20T06:38:31.715Z,68.35
2023-10-20T06:39:07.125Z,67.15
2023-10-20T06:39:39.940Z,68.15
2023-10-20T06:40:16.673Z,67.82
2023-10-20T06:40:50.329Z,72.38
2023-10-20T06:41:23.054Z,68.70
2023-10-20T06:41:55.721Z,66.80
2023-10-20T06:42:32.352Z,68.63
2023-10-20T06:43:06.316Z,69.25
2023-10-20T06:43:39.237Z,71.53
2023-10-20T06:44:12.097Z,68.97
2023-10-20T06:44:44.736Z,69.78
2023-10-20T06:45:18.520Z,69.10
2023-10-20T06:45:57.965Z,69.43
2023-10-20T06:46:31.212Z,66.50
2023-10-20T06:47:03.790Z,69.82
2023-10-20T06:47:37.947Z,68.45
2023-10-20T06:48:11.247Z,67.13
2023-10-20T06:48:43.949Z,68.90
2023-10-20T06:49:20.132Z,69.05
2023-10-20T06:49:53.950Z,68.95
2023-10-20T06:50:26.670Z,67.35
2023-10-20T06:51:00.019Z,67.03
2023-10-20T06:51:33.651Z,68.57
2023-10-20T06:52:06.972Z,69.25
2023-10-20T06:52:39.678Z,68.32
2023-10-20T06:53:13.255Z,67.50
2023-10-20T06:53:45.889Z,71.25
2023-10-20T06:54:18.900Z,71.90
2023-10-20T06:55:15.347Z,66.38
2023-10-20T06:56:05.295Z,67.30
2023-10-20T06:56:38.425Z,65.93
2023-10-20T06:57:11.235Z,67.50
2023-10-20T06:57:44.030Z,70.10
2023-10-20T06:58:19.536Z,67.63
2023-10-20T06:58:52.174Z,68.97
2023-10-20T06:59:25.823Z,65.93
2023-10-20T06:59:58.683Z,67.32
2023-10-20T07:00:32.257Z,66.55
2023-10-20T07:01:08.104Z,67.80
2023-10-20T07:01:43.369Z,67.28
2023-10-20T07:02:17.203Z,67.63
2023-10-20T07:02:50.831Z,68.60
2023-10-20T07:03:23.471Z,68.97
2023-10-20T07:03:56.209Z,67.72
2023-10-20T07:04:29.082Z,63.70
2023-10-20T07:05:03.049Z,68.00
2023-10-20T07:05:38.885Z,66.85
2023-10-20T07:06:12.695Z,69.30
2023-10-20T07:06:45.606Z,67.80
2023-10-20T07:07:19.244Z,68.90
2023-10-20T07:07:52.078Z,67.78
2023-10-20T07:08:25.808Z,68.53
2023-10-20T07:08:58.969Z,67.05
2023-10-20T07:09:32.506Z,68.43
2023-10-20T07:10:06.379Z,68.25
2023-10-20T07:10:39.230Z,67.22
2023-10-20T07:11:11.829Z,67.03
2023-10-20T07:11:45.869Z,70.47
2023-10-20T07:12:18.626Z,67.30
2023-10-20T07:12:51.183Z,68.90
2023-10-20T07:13:23.759Z,70.05
2023-10-20T07:13:57.833Z,69.88
2023-10-20T07:14:30.417Z,69.55
2023-10-20T07:15:03.041Z,68.93
2023-10-20T07:15:35.994Z,65.88
2023-10-20T07:16:13.278Z,66.18
2023-10-20T07:16:45.930Z,66.60
2023-10-20T07:17:18.542Z,70.00
2023-10-20T07:17:51.113Z,64.07
2023-10-20T07:18:24.964Z,67.35
2023-10-20T07:18:57.613Z,66.47
2023-10-20T07:19:32.140Z,68.70
2023-10-20T07:20:06.162Z,69.00
2023-10-20T07:20:40.488Z,68.00
2023-10-20T07:21:13.036Z,65.85
2023-10-20T07:21:45.617Z,65.43
2023-10-20T07:22:19.486Z,64.50
2023-10-20T07:22:53.079Z,64.88
2023-10-20T07:23:26.172Z,66.35
2023-10-20T07:23:58.892Z,64.47
2023-10-20T07:24:32.870Z,66.10
2023-10-20T07:25:06.293Z,66.43
2023-10-20T07:25:38.876Z,63.95
2023-10-20T07:26:12.204Z,65.88
2023-10-20T07:26:46.558Z,65.18
2023-10-20T07:27:20.461Z,66.53
2023-10-20T07:27:53.209Z,64.13
2023-10-20T07:28:27.132Z,65.60
2023-10-20T07:28:59.644Z,65.00
2023-10-20T07:29:32.398Z,62.60
2023-10-20T07:30:07.998Z,65.03
2023-10-20T07:30:41.703Z,63.60
2023-10-20T07:31:17.380Z,63.15
2023-10-20T07:31:50.095Z,64.60
2023-10-20T07:32:22.815Z,65.10